sensor_id;sensor_type;location;lat;lon;timestamp;pressure;altitude;pressure_sealevel;temperature;humidity
9738;BME280;4908;47.446;13.900;2023-11-18T00:00:14;93152.19;;;1.95;100.00
9738;BME280;4908;47.446;13.900;2023-11-18T00:02:43;93159.28;;;2.03;100.00
9738;BME280;4908;47.446;13.900;2023-11-18T00:05:10;93145.97;;;2.20;100.00
9738;BME280;4908;47.446;13.900;2023-11-18T00:07:37;93132.66;;;2.37;100.00
9738;BME280;4908;47.446;13.900;2023-11-18T00:10:05;93142.16;;;2.38;100.00
9738;BME280;4908;47.446;13.900;2023-11-18T00:12:35;93149.13;;;2.63;100.00
9738;BME280;4908;47.446;13.900;2023-11-18T00:15:02;93151.69;;;2.51;100.00
9738;BME280;4908;47.446;13.900;2023-11-18T00:17:30;93152.34;;;2.48;100.00
9738;BME280;4908;47.446;13.900;2023-11-18T00:19:57;93151.69;;;2.51;100.00
9738;BME280;4908;47.446;13.900;2023-11-18T00:22:25;93159.63;;;2.51;100.00
9738;BME280;4908;47.446;13.900;2023-11-18T00:24:53;93155.53;;;2.33;100.00
9738;BME280;4908;47.446;13.900;2023-11-18T00:27:20;93156.72;;;2.44;100.00
9738;BME280;4908;47.446;13.900;2023-11-18T00:29:49;93162.25;;;2.51;100.00
9738;BME280;4908;47.446;13.900;2023-11-18T00:32:18;93164.75;;;2.56;100.00
9738;BME280;4908;47.446;13.900;2023-11-18T00:34:46;93170.53;;;2.70;100.00
9738;BME280;4908;47.446;13.900;2023-11-18T00:37:13;93172.84;;;2.93;100.00
9738;BME280;4908;47.446;13.900;2023-11-18T00:39:40;93171.00;;;2.93;100.00
9738;BME280;4908;47.446;13.900;2023-11-18T00:42:07;93163.81;;;2.94;100.00
9738;BME280;4908;47.446;13.900;2023-11-18T00:44:34;93177.38;;;2.92;100.00
9738;BME280;4908;47.446;13.900;2023-11-18T00:47:02;93161.34;;;3.09;100.00
9738;BME280;4908;47.446;13.900;2023-11-18T00:49:29;93168.66;;;2.92;100.00
9738;BME280;4908;47.446;13.900;2023-11-18T00:51:56;93174.38;;;2.94;100.00
9738;BME280;4908;47.446;13.900;2023-11-18T00:54:24;93182.16;;;2.99;100.00
9738;BME280;4908;47.446;13.900;2023-11-18T00:56:50;93184.34;;;2.97;100.00
9738;BME280;4908;47.446;13.900;2023-11-18T00:59:17;93189.34;;;2.90;100.00
9738;BME280;4908;47.446;13.900;2023-11-18T01:01:45;93183.03;;;2.82;100.00
9738;BME280;4908;47.446;13.900;2023-11-18T01:04:15;93204.28;;;2.73;100.00
9738;BME280;4908;47.446;13.900;2023-11-18T01:06:42;93167.25;;;2.73;100.00
9738;BME280;4908;47.446;13.900;2023-11-18T01:09:09;93194.91;;;2.76;100.00
9738;BME280;4908;47.446;13.900;2023-11-18T01:11:37;93182.91;;;2.79;100.00
9738;BME280;4908;47.446;13.900;2023-11-18T01:14:04;93197.75;;;2.92;100.00
9738;BME280;4908;47.446;13.900;2023-11-18T01:16:31;93205.22;;;2.90;100.00
9738;BME280;4908;47.446;13.900;2023-11-18T01:18:59;93207.41;;;2.88;100.00
9738;BME280;4908;47.446;13.900;2023-11-18T01:21:28;93207.41;;;2.88;100.00
9738;BME280;4908;47.446;13.900;2023-11-18T01:23:55;93220.84;;;2.83;100.00
9738;BME280;4908;47.446;13.900;2023-11-18T01:26:22;93217.28;;;2.79;100.00
9738;BME280;4908;47.446;13.900;2023-11-18T01:28:49;93223.84;;;2.72;100.00
9738;BME280;4908;47.446;13.900;2023-11-18T01:31:16;93240.69;;;2.68;100.00
9738;BME280;4908;47.446;13.900;2023-11-18T01:33:43;93246.69;;;2.56;100.00
9738;BME280;4908;47.446;13.900;2023-11-18T01:36:11;93236.47;;;2.46;100.00
9738;BME280;4908;47.446;13.900;2023-11-18T01:38:39;93246.75;;;2.39;100.00
9738;BME280;4908;47.446;13.900;2023-11-18T01:41:07;93247.84;;;2.38;100.00
9738;BME280;4908;47.446;13.900;2023-11-18T01:43:34;93266.34;;;2.38;100.00
9738;BME280;4908;47.446;13.900;2023-11-18T01:46:04;93261.09;;;2.30;100.00
9738;BME280;4908;47.446;13.900;2023-11-18T01:48:33;93271.19;;;2.28;100.00
9738;BME280;4908;47.446;13.900;2023-11-18T01:51:01;93266.88;;;2.23;100.00
9738;BME280;4908;47.446;13.900;2023-11-18T01:53:31;93268.28;;;2.21;100.00
9738;BME280;4908;47.446;13.900;2023-11-18T01:56:00;93270.19;;;2.12;100.00
9738;BME280;4908;47.446;13.900;2023-11-18T01:58:28;93271.91;;;2.08;100.00
9738;BME280;4908;47.446;13.900;2023-11-18T02:00:57;93270.38;;;1.98;100.00
9738;BME280;4908;47.446;13.900;2023-11-18T02:03:24;93266.63;;;1.99;100.00
9738;BME280;4908;47.446;13.900;2023-11-18T02:05:53;93281.41;;;2.00;100.00
9738;BME280;4908;47.446;13.900;2023-11-18T02:08:20;93269.41;;;2.11;100.00
9738;BME280;4908;47.446;13.900;2023-11-18T02:10:49;93275.16;;;2.13;100.00
9738;BME280;4908;47.446;13.900;2023-11-18T02:13:22;93271.25;;;2.19;100.00
9738;BME280;4908;47.446;13.900;2023-11-18T02:15:53;93270.31;;;2.15;100.00
9738;BME280;4908;47.446;13.900;2023-11-18T02:18:24;93267.22;;;2.13;100.00
9738;BME280;4908;47.446;13.900;2023-11-18T02:20:52;93270.03;;;2.08;100.00
9738;BME280;4908;47.446;13.900;2023-11-18T02:23:20;93272.50;;;2.13;100.00
9738;BME280;4908;47.446;13.900;2023-11-18T02:25:50;93265.66;;;2.12;100.00
9738;BME280;4908;47.446;13.900;2023-11-18T02:28:19;93266.56;;;2.16;100.00
9738;BME280;4908;47.446;13.900;2023-11-18T02:30:47;93271.59;;;2.09;100.00
9738;BME280;4908;47.446;13.900;2023-11-18T02:33:20;93266.47;;;2.04;100.00
9738;BME280;4908;47.446;13.900;2023-11-18T02:35:52;93263.69;;;2.01;100.00
9738;BME280;4908;47.446;13.900;2023-11-18T02:38:25;93262.50;;;2.27;100.00
9738;BME280;4908;47.446;13.900;2023-11-18T02:40:58;93273.97;;;2.31;100.00
9738;BME280;4908;47.446;13.900;2023-11-18T02:43:30;93271.34;;;2.31;100.00
9738;BME280;4908;47.446;13.900;2023-11-18T02:45:58;93269.97;;;2.25;100.00
9738;BME280;4908;47.446;13.900;2023-11-18T02:48:26;93263.16;;;2.16;100.00
9738;BME280;4908;47.446;13.900;2023-11-18T02:50:57;93269.53;;;2.15;100.00
9738;BME280;4908;47.446;13.900;2023-11-18T02:53:24;93265.44;;;2.26;100.00
9738;BME280;4908;47.446;13.900;2023-11-18T02:55:52;93259.22;;;2.30;100.00
9738;BME280;4908;47.446;13.900;2023-11-18T02:58:20;93264.06;;;2.28;100.00
9738;BME280;4908;47.446;13.900;2023-11-18T03:00:47;93262.66;;;2.22;100.00
9738;BME280;4908;47.446;13.900;2023-11-18T03:03:15;93270.25;;;2.32;100.00
9738;BME280;4908;47.446;13.900;2023-11-18T03:05:42;93261.84;;;2.39;100.00
9738;BME280;4908;47.446;13.900;2023-11-18T03:08:11;93267.72;;;2.44;100.00
9738;BME280;4908;47.446;13.900;2023-11-18T03:10:39;93280.28;;;2.47;100.00
9738;BME280;4908;47.446;13.900;2023-11-18T03:13:10;93277.47;;;2.52;100.00
9738;BME280;4908;47.446;13.900;2023-11-18T03:15:39;93267.31;;;2.63;100.00
9738;BME280;4908;47.446;13.900;2023-11-18T03:18:06;93277.84;;;2.71;100.00
9738;BME280;4908;47.446;13.900;2023-11-18T03:20:33;93275.53;;;2.70;100.00
9738;BME280;4908;47.446;13.900;2023-11-18T03:23:00;93270.53;;;2.68;100.00
9738;BME280;4908;47.446;13.900;2023-11-18T03:25:28;93282.53;;;2.66;100.00
9738;BME280;4908;47.446;13.900;2023-11-18T03:27:55;93272.22;;;2.73;100.00
9738;BME280;4908;47.446;13.900;2023-11-18T03:30:22;93261.63;;;2.82;100.00
9738;BME280;4908;47.446;13.900;2023-11-18T03:32:51;93273.53;;;2.88;100.00
9738;BME280;4908;47.446;13.900;2023-11-18T03:35:18;93270.59;;;2.89;100.00
9738;BME280;4908;47.446;13.900;2023-11-18T03:37:45;93270.50;;;2.98;100.00
9738;BME280;4908;47.446;13.900;2023-11-18T03:40:13;93279.28;;;2.90;100.00
9738;BME280;4908;47.446;13.900;2023-11-18T03:42:41;93281.03;;;2.86;100.00
9738;BME280;4908;47.446;13.900;2023-11-18T03:45:09;93273.97;;;2.90;100.00
9738;BME280;4908;47.446;13.900;2023-11-18T03:47:36;93274.44;;;2.92;100.00
9738;BME280;4908;47.446;13.900;2023-11-18T03:50:06;93278.00;;;2.96;100.00
9738;BME280;4908;47.446;13.900;2023-11-18T03:52:35;93282.81;;;2.94;100.00
9738;BME280;4908;47.446;13.900;2023-11-18T03:55:03;93283.00;;;2.97;100.00
9738;BME280;4908;47.446;13.900;2023-11-18T03:57:30;93282.66;;;2.99;100.00
9738;BME280;4908;47.446;13.900;2023-11-18T03:59:58;93286.66;;;3.05;100.00
9738;BME280;4908;47.446;13.900;2023-11-18T04:02:25;93283.13;;;3.01;100.00
9738;BME280;4908;47.446;13.900;2023-11-18T04:04:52;93283.13;;;3.01;100.00
9738;BME280;4908;47.446;13.900;2023-11-18T04:07:21;93262.41;;;3.03;100.00
9738;BME280;4908;47.446;13.900;2023-11-18T04:09:48;93268.28;;;3.08;100.00
9738;BME280;4908;47.446;13.900;2023-11-18T04:12:15;93267.75;;;3.15;100.00
9738;BME280;4908;47.446;13.900;2023-11-18T04:14:42;93272.66;;;3.25;100.00
9738;BME280;4908;47.446;13.900;2023-11-18T04:17:09;93291.84;;;3.22;100.00
9738;BME280;4908;47.446;13.900;2023-11-18T04:19:37;93279.69;;;3.21;100.00
9738;BME280;4908;47.446;13.900;2023-11-18T04:22:04;93309.91;;;3.20;100.00
9738;BME280;4908;47.446;13.900;2023-11-18T04:24:33;93283.63;;;3.15;100.00
9738;BME280;4908;47.446;13.900;2023-11-18T04:27:01;93285.63;;;3.18;100.00
9738;BME280;4908;47.446;13.900;2023-11-18T04:29:28;93283.00;;;3.18;100.00
9738;BME280;4908;47.446;13.900;2023-11-18T04:31:55;93283.44;;;3.20;100.00
9738;BME280;4908;47.446;13.900;2023-11-18T04:34:22;93283.44;;;3.20;100.00
9738;BME280;4908;47.446;13.900;2023-11-18T04:36:52;93305.25;;;3.17;100.00
9738;BME280;4908;47.446;13.900;2023-11-18T04:39:19;93284.94;;;3.09;100.00
9738;BME280;4908;47.446;13.900;2023-11-18T04:41:49;93289.09;;;3.10;100.00
9738;BME280;4908;47.446;13.900;2023-11-18T04:44:17;93287.56;;;3.09;100.00
9738;BME280;4908;47.446;13.900;2023-11-18T04:46:44;93303.28;;;3.05;100.00
9738;BME280;4908;47.446;13.900;2023-11-18T04:49:11;93299.25;;;3.08;100.00
9738;BME280;4908;47.446;13.900;2023-11-18T04:51:38;93300.06;;;3.00;100.00
9738;BME280;4908;47.446;13.900;2023-11-18T04:54:05;93299.75;;;3.01;100.00
9738;BME280;4908;47.446;13.900;2023-11-18T04:56:33;93295.47;;;2.88;100.00
9738;BME280;4908;47.446;13.900;2023-11-18T04:59:03;93297.72;;;2.78;100.00
9738;BME280;4908;47.446;13.900;2023-11-18T05:01:31;93286.84;;;2.70;100.00
9738;BME280;4908;47.446;13.900;2023-11-18T05:03:58;93298.22;;;2.71;100.00
9738;BME280;4908;47.446;13.900;2023-11-18T05:06:26;93288.56;;;2.75;100.00
9738;BME280;4908;47.446;13.900;2023-11-18T05:08:53;93300.03;;;2.79;100.00
9738;BME280;4908;47.446;13.900;2023-11-18T05:11:20;93300.81;;;2.80;100.00
9738;BME280;4908;47.446;13.900;2023-11-18T05:13:48;93302.34;;;2.81;100.00
9738;BME280;4908;47.446;13.900;2023-11-18T05:16:17;93289.78;;;2.78;100.00
9738;BME280;4908;47.446;13.900;2023-11-18T05:18:45;93297.06;;;2.81;100.00
9738;BME280;4908;47.446;13.900;2023-11-18T05:21:12;93307.66;;;2.81;100.00
9738;BME280;4908;47.446;13.900;2023-11-18T05:23:39;93310.94;;;2.78;100.00
9738;BME280;4908;47.446;13.900;2023-11-18T05:26:06;93310.66;;;2.70;100.00
9738;BME280;4908;47.446;13.900;2023-11-18T05:28:34;93310.97;;;2.69;100.00
9738;BME280;4908;47.446;13.900;2023-11-18T05:31:01;93315.94;;;2.70;100.00
9738;BME280;4908;47.446;13.900;2023-11-18T05:33:30;93319.81;;;2.73;100.00
9738;BME280;4908;47.446;13.900;2023-11-18T05:35:59;93317.03;;;2.69;100.00
9738;BME280;4908;47.446;13.900;2023-11-18T05:38:27;93316.13;;;2.65;100.00
9738;BME280;4908;47.446;13.900;2023-11-18T05:40:57;93320.16;;;2.71;100.00
9738;BME280;4908;47.446;13.900;2023-11-18T05:43:27;93322.34;;;2.69;100.00
9738;BME280;4908;47.446;13.900;2023-11-18T05:45:55;93318.72;;;2.74;100.00
9738;BME280;4908;47.446;13.900;2023-11-18T05:48:41;93317.81;;;2.70;100.00
9738;BME280;4908;47.446;13.900;2023-11-18T05:51:09;93326.69;;;2.65;100.00
9738;BME280;4908;47.446;13.900;2023-11-18T05:53:39;93312.84;;;2.68;100.00
9738;BME280;4908;47.446;13.900;2023-11-18T05:56:09;93319.09;;;2.64;100.00
9738;BME280;4908;47.446;13.900;2023-11-18T05:58:36;93330.41;;;2.64;100.00
9738;BME280;4908;47.446;13.900;2023-11-18T06:01:05;93326.06;;;2.68;100.00
9738;BME280;4908;47.446;13.900;2023-11-18T06:03:33;93337.53;;;2.72;100.00
9738;BME280;4908;47.446;13.900;2023-11-18T06:06:02;93336.94;;;2.76;100.00
9738;BME280;4908;47.446;13.900;2023-11-18T06:08:32;93336.41;;;2.82;100.00
9738;BME280;4908;47.446;13.900;2023-11-18T06:10:59;93341.69;;;2.82;100.00
9738;BME280;4908;47.446;13.900;2023-11-18T06:13:31;93331.44;;;2.81;100.00
9738;BME280;4908;47.446;13.900;2023-11-18T06:15:58;93335.91;;;2.89;100.00
9738;BME280;4908;47.446;13.900;2023-11-18T06:18:25;93330.63;;;2.89;100.00
9738;BME280;4908;47.446;13.900;2023-11-18T06:20:52;93336.38;;;2.91;100.00
9738;BME280;4908;47.446;13.900;2023-11-18T06:23:20;93340.88;;;2.90;100.00
9738;BME280;4908;47.446;13.900;2023-11-18T06:25:48;93343.50;;;2.99;100.00
9738;BME280;4908;47.446;13.900;2023-11-18T06:28:16;93343.03;;;2.97;100.00
9738;BME280;4908;47.446;13.900;2023-11-18T06:30:44;93341.47;;;2.96;100.00
9738;BME280;4908;47.446;13.900;2023-11-18T06:33:11;93341.13;;;3.06;100.00
9738;BME280;4908;47.446;13.900;2023-11-18T06:35:38;93353.72;;;3.09;100.00
9738;BME280;4908;47.446;13.900;2023-11-18T06:38:05;93352.47;;;3.06;100.00
9738;BME280;4908;47.446;13.900;2023-11-18T06:40:34;93358.09;;;3.05;100.00
9738;BME280;4908;47.446;13.900;2023-11-18T06:43:01;93372.59;;;2.99;100.00
9738;BME280;4908;47.446;13.900;2023-11-18T06:45:28;93367.91;;;2.96;100.00
9738;BME280;4908;47.446;13.900;2023-11-18T06:47:57;93385.84;;;2.90;100.00
9738;BME280;4908;47.446;13.900;2023-11-18T06:50:24;93368.31;;;2.86;100.00
9738;BME280;4908;47.446;13.900;2023-11-18T06:52:52;93374.22;;;2.83;100.00
9738;BME280;4908;47.446;13.900;2023-11-18T06:55:19;93384.97;;;2.78;100.00
9738;BME280;4908;47.446;13.900;2023-11-18T06:57:48;93391.66;;;2.75;100.00
9738;BME280;4908;47.446;13.900;2023-11-18T07:00:15;93389.63;;;2.81;100.00
9738;BME280;4908;47.446;13.900;2023-11-18T07:02:42;93387.63;;;2.78;100.00
9738;BME280;4908;47.446;13.900;2023-11-18T07:05:09;93378.88;;;2.86;100.00
9738;BME280;4908;47.446;13.900;2023-11-18T07:07:40;93399.66;;;2.96;100.00
9738;BME280;4908;47.446;13.900;2023-11-18T07:10:08;93405.75;;;2.88;100.00
9738;BME280;4908;47.446;13.900;2023-11-18T07:12:38;93391.91;;;2.91;100.00
9738;BME280;4908;47.446;13.900;2023-11-18T07:15:08;93387.25;;;2.88;100.00
9738;BME280;4908;47.446;13.900;2023-11-18T07:17:36;93378.03;;;3.02;100.00
9738;BME280;4908;47.446;13.900;2023-11-18T07:20:03;93396.50;;;3.11;100.00
9738;BME280;4908;47.446;13.900;2023-11-18T07:22:31;93388.41;;;3.07;100.00
9738;BME280;4908;47.446;13.900;2023-11-18T07:25:00;93408.34;;;3.05;100.00
9738;BME280;4908;47.446;13.900;2023-11-18T07:27:28;93392.19;;;2.98;100.00
9738;BME280;4908;47.446;13.900;2023-11-18T07:29:55;93401.38;;;3.00;100.00
9738;BME280;4908;47.446;13.900;2023-11-18T07:32:25;93404.59;;;3.06;100.00
9738;BME280;4908;47.446;13.900;2023-11-18T07:34:52;93406.31;;;3.10;100.00
9738;BME280;4908;47.446;13.900;2023-11-18T07:37:21;93401.16;;;3.14;100.00
9738;BME280;4908;47.446;13.900;2023-11-18T07:39:48;93393.22;;;3.14;100.00
9738;BME280;4908;47.446;13.900;2023-11-18T07:42:15;93398.97;;;3.16;100.00
9738;BME280;4908;47.446;13.900;2023-11-18T07:44:43;93398.03;;;3.12;100.00
9738;BME280;4908;47.446;13.900;2023-11-18T07:47:11;93395.53;;;3.15;100.00
9738;BME280;4908;47.446;13.900;2023-11-18T07:49:39;93384.94;;;3.15;100.00
9738;BME280;4908;47.446;13.900;2023-11-18T07:52:06;93395.63;;;3.27;100.00
9738;BME280;4908;47.446;13.900;2023-11-18T07:54:33;93401.03;;;3.31;100.00
9738;BME280;4908;47.446;13.900;2023-11-18T07:57:00;93390.66;;;3.26;100.00
9738;BME280;4908;47.446;13.900;2023-11-18T07:59:29;93392.03;;;3.32;100.00
9738;BME280;4908;47.446;13.900;2023-11-18T08:01:57;93391.13;;;3.28;100.00
9738;BME280;4908;47.446;13.900;2023-11-18T08:04:26;93399.22;;;3.23;100.00
9738;BME280;4908;47.446;13.900;2023-11-18T08:06:55;93405.88;;;3.29;100.00
9738;BME280;4908;47.446;13.900;2023-11-18T08:09:22;93397.03;;;3.25;100.00
9738;BME280;4908;47.446;13.900;2023-11-18T08:11:51;93408.72;;;3.24;100.00
9738;BME280;4908;47.446;13.900;2023-11-18T08:14:21;93397.22;;;3.20;100.00
9738;BME280;4908;47.446;13.900;2023-11-18T08:16:48;93399.75;;;3.16;100.00
9738;BME280;4908;47.446;13.900;2023-11-18T08:19:15;93398.38;;;3.10;100.00
9738;BME280;4908;47.446;13.900;2023-11-18T08:21:43;93407.09;;;3.11;100.00
9738;BME280;4908;47.446;13.900;2023-11-18T08:24:11;93417.34;;;3.12;100.00
9738;BME280;4908;47.446;13.900;2023-11-18T08:26:38;93426.81;;;3.13;100.00
9738;BME280;4908;47.446;13.900;2023-11-18T08:29:05;93418.06;;;3.21;100.00
9738;BME280;4908;47.446;13.900;2023-11-18T08:31:33;93420.56;;;3.26;100.00
9738;BME280;4908;47.446;13.900;2023-11-18T08:34:00;93425.91;;;3.38;100.00
9738;BME280;4908;47.446;13.900;2023-11-18T08:36:27;93422.97;;;3.40;100.00
9738;BME280;4908;47.446;13.900;2023-11-18T08:38:58;93428.72;;;3.42;100.00
9738;BME280;4908;47.446;13.900;2023-11-18T08:41:26;93434.00;;;3.42;100.00
9738;BME280;4908;47.446;13.900;2023-11-18T08:43:56;93432.44;;;3.41;100.00
9738;BME280;4908;47.446;13.900;2023-11-18T08:46:23;93440.19;;;3.46;100.00
9738;BME280;4908;47.446;13.900;2023-11-18T08:48:52;93435.81;;;3.50;100.00
9738;BME280;4908;47.446;13.900;2023-11-18T08:51:21;93438.91;;;3.52;100.00
9738;BME280;4908;47.446;13.900;2023-11-18T08:53:51;93439.38;;;3.54;100.00
9738;BME280;4908;47.446;13.900;2023-11-18T08:56:20;93435.00;;;3.58;100.00
9738;BME280;4908;47.446;13.900;2023-11-18T08:58:58;93452.25;;;3.64;100.00
9738;BME280;4908;47.446;13.900;2023-11-18T09:01:26;93445.53;;;3.67;100.00
9738;BME280;4908;47.446;13.900;2023-11-18T09:03:53;93452.66;;;3.75;100.00
9738;BME280;4908;47.446;13.900;2023-11-18T09:06:22;93450.59;;;3.80;100.00
9738;BME280;4908;47.446;13.900;2023-11-18T09:08:54;93458.16;;;3.90;100.00
9738;BME280;4908;47.446;13.900;2023-11-18T09:11:24;93464.81;;;3.96;100.00
9738;BME280;4908;47.446;13.900;2023-11-18T09:13:54;93465.44;;;3.93;100.00
9738;BME280;4908;47.446;13.900;2023-11-18T09:16:27;93467.94;;;3.98;100.00
9738;BME280;4908;47.446;13.900;2023-11-18T09:18:55;93474.38;;;4.09;100.00
9738;BME280;4908;47.446;13.900;2023-11-18T09:21:24;93481.16;;;4.19;100.00
9738;BME280;4908;47.446;13.900;2023-11-18T09:23:54;93480.84;;;4.20;100.00
9738;BME280;4908;47.446;13.900;2023-11-18T09:26:22;93483.03;;;4.18;100.00
9738;BME280;4908;47.446;13.900;2023-11-18T09:28:51;93486.66;;;4.34;100.00
9738;BME280;4908;47.446;13.900;2023-11-18T09:31:18;93493.00;;;4.42;100.00
9738;BME280;4908;47.446;13.900;2023-11-18T09:33:48;93489.09;;;4.39;100.00
9738;BME280;4908;47.446;13.900;2023-11-18T09:36:19;93493.38;;;4.52;100.00
9738;BME280;4908;47.446;13.900;2023-11-18T09:38:47;93491.53;;;4.65;100.00
9738;BME280;4908;47.446;13.900;2023-11-18T09:41:15;93492.56;;;4.73;100.00
9738;BME280;4908;47.446;13.900;2023-11-18T09:43:44;93483.69;;;4.69;100.00
9738;BME280;4908;47.446;13.900;2023-11-18T09:46:13;93486.00;;;4.58;100.00
9738;BME280;4908;47.446;13.900;2023-11-18T09:48:42;93497.25;;;4.55;100.00
9738;BME280;4908;47.446;13.900;2023-11-18T09:51:19;93500.44;;;4.48;100.00
9738;BME280;4908;47.446;13.900;2023-11-18T09:53:49;93497.50;;;4.41;100.00
9738;BME280;4908;47.446;13.900;2023-11-18T09:56:22;93502.94;;;4.45;100.00
9738;BME280;4908;47.446;13.900;2023-11-18T09:59:02;93488.03;;;4.40;100.00
9738;BME280;4908;47.446;13.900;2023-11-18T10:01:37;93482.41;;;4.21;100.00
9738;BME280;4908;47.446;13.900;2023-11-18T10:04:05;93478.41;;;4.15;100.00
9738;BME280;4908;47.446;13.900;2023-11-18T10:06:36;93471.59;;;4.26;100.00
9738;BME280;4908;47.446;13.900;2023-11-18T10:09:06;93468.16;;;4.46;100.00
9738;BME280;4908;47.446;13.900;2023-11-18T10:11:42;93462.19;;;4.49;100.00
9738;BME280;4908;47.446;13.900;2023-11-18T10:14:13;93462.84;;;4.46;100.00
9738;BME280;4908;47.446;13.900;2023-11-18T10:16:41;93461.56;;;4.52;100.00
9738;BME280;4908;47.446;13.900;2023-11-18T10:19:11;93457.50;;;4.67;100.00
9738;BME280;4908;47.446;13.900;2023-11-18T10:21:41;93450.56;;;4.75;100.00
9738;BME280;4908;47.446;13.900;2023-11-18T10:24:08;93446.66;;;5.29;100.00
9738;BME280;4908;47.446;13.900;2023-11-18T10:26:41;93452.84;;;6.05;100.00
9738;BME280;4908;47.446;13.900;2023-11-18T10:29:10;93445.34;;;5.83;100.00
9738;BME280;4908;47.446;13.900;2023-11-18T10:31:39;93443.78;;;5.46;100.00
9738;BME280;4908;47.446;13.900;2023-11-18T10:34:11;93448.31;;;5.21;100.00
9738;BME280;4908;47.446;13.900;2023-11-18T10:36:58;93452.84;;;5.21;100.00
9738;BME280;4908;47.446;13.900;2023-11-18T10:39:29;93451.53;;;5.27;100.00
9738;BME280;4908;47.446;13.900;2023-11-18T10:41:59;93454.19;;;5.27;100.00
9738;BME280;4908;47.446;13.900;2023-11-18T10:44:26;93459.94;;;5.17;100.00
9738;BME280;4908;47.446;13.900;2023-11-18T10:46:55;93456.63;;;5.20;100.00
9738;BME280;4908;47.446;13.900;2023-11-18T10:49:24;93463.84;;;5.31;100.00
9738;BME280;4908;47.446;13.900;2023-11-18T10:51:53;93457.84;;;5.46;100.00
9738;BME280;4908;47.446;13.900;2023-11-18T10:54:22;93463.28;;;5.50;100.00
9738;BME280;4908;47.446;13.900;2023-11-18T10:56:52;93463.28;;;5.50;100.00
9738;BME280;4908;47.446;13.900;2023-11-18T10:59:22;93468.81;;;5.57;100.00
9738;BME280;4908;47.446;13.900;2023-11-18T11:01:49;93460.72;;;5.66;100.00
9738;BME280;4908;47.446;13.900;2023-11-18T11:04:17;93458.44;;;5.88;100.00
9738;BME280;4908;47.446;13.900;2023-11-18T11:06:47;93450.44;;;5.76;100.00
9738;BME280;4908;47.446;13.900;2023-11-18T11:09:20;93451.75;;;5.70;100.00
9738;BME280;4908;47.446;13.900;2023-11-18T11:11:53;93451.97;;;5.77;100.00
9738;BME280;4908;47.446;13.900;2023-11-18T11:14:22;93448.44;;;5.97;100.00
9738;BME280;4908;47.446;13.900;2023-11-18T11:16:55;93455.28;;;6.10;100.00
9738;BME280;4908;47.446;13.900;2023-11-18T11:19:25;93455.50;;;6.17;100.00
9738;BME280;4908;47.446;13.900;2023-11-18T11:22:00;93457.63;;;6.40;100.00
9738;BME280;4908;47.446;13.900;2023-11-18T11:24:40;93455.81;;;6.56;100.00
9738;BME280;4908;47.446;13.900;2023-11-18T11:27:19;93455.31;;;6.66;100.00
9738;BME280;4908;47.446;13.900;2023-11-18T11:29:59;93460.06;;;6.45;100.00
9738;BME280;4908;47.446;13.900;2023-11-18T11:32:39;93460.34;;;6.27;100.00
9738;BME280;4908;47.446;13.900;2023-11-18T11:35:19;93444.44;;;6.03;100.00
9738;BME280;4908;47.446;13.900;2023-11-18T11:37:50;93457.88;;;6.34;100.00
9738;BME280;4908;47.446;13.900;2023-11-18T11:40:21;93449.56;;;6.64;100.00
9738;BME280;4908;47.446;13.900;2023-11-18T11:42:50;93455.72;;;6.80;100.00
9738;BME280;4908;47.446;13.900;2023-11-18T11:45:22;93461.59;;;7.16;100.00
9738;BME280;4908;47.446;13.900;2023-11-18T11:47:55;93457.56;;;8.20;100.00
9738;BME280;4908;47.446;13.900;2023-11-18T11:50:53;93456.81;;;8.76;76.26
9738;BME280;4908;47.446;13.900;2023-11-18T11:53:22;93461.06;;;9.19;63.74
9738;BME280;4908;47.446;13.900;2023-11-18T11:55:53;93458.31;;;10.36;54.58
9738;BME280;4908;47.446;13.900;2023-11-18T11:58:31;93458.53;;;9.98;53.01
9738;BME280;4908;47.446;13.900;2023-11-18T12:01:00;93460.25;;;9.15;58.57
9738;BME280;4908;47.446;13.900;2023-11-18T12:03:33;93452.66;;;8.98;62.87
9738;BME280;4908;47.446;13.900;2023-11-18T12:06:02;93461.47;;;9.66;59.98
9738;BME280;4908;47.446;13.900;2023-11-18T12:08:35;93453.31;;;9.56;58.51
9738;BME280;4908;47.446;13.900;2023-11-18T12:11:06;93465.81;;;9.29;60.15
9738;BME280;4908;47.446;13.900;2023-11-18T12:13:38;93468.25;;;9.15;57.37
9738;BME280;4908;47.446;13.900;2023-11-18T12:16:10;93476.13;;;9.50;59.59
9738;BME280;4908;47.446;13.900;2023-11-18T12:18:41;93470.38;;;9.74;55.83
9738;BME280;4908;47.446;13.900;2023-11-18T12:21:09;93469.44;;;9.18;64.20
9738;BME280;4908;47.446;13.900;2023-11-18T12:24:15;93474.75;;;9.59;65.11
9738;BME280;4908;47.446;13.900;2023-11-18T12:26:46;93465.41;;;9.27;70.50
9738;BME280;4908;47.446;13.900;2023-11-18T12:29:30;93468.84;;;8.48;70.06
9738;BME280;4908;47.446;13.900;2023-11-18T12:31:57;93464.94;;;7.76;69.84
9738;BME280;4908;47.446;13.900;2023-11-18T12:34:24;93468.97;;;7.23;77.47
9738;BME280;4908;47.446;13.900;2023-11-18T12:40:23;93470.28;;;6.70;71.91
9738;BME280;4908;47.446;13.900;2023-11-18T12:42:59;93467.97;;;6.29;76.91
9738;BME280;4908;47.446;13.900;2023-11-18T12:48:31;93486.28;;;6.18;80.98
9738;BME280;4908;47.446;13.900;2023-11-18T12:51:02;93484.31;;;6.15;72.75
9738;BME280;4908;47.446;13.900;2023-11-18T12:53:35;93496.13;;;6.18;77.29
9738;BME280;4908;47.446;13.900;2023-11-18T12:56:03;93490.72;;;6.14;81.53
9738;BME280;4908;47.446;13.900;2023-11-18T12:58:32;93488.75;;;6.11;77.69
9738;BME280;4908;47.446;13.900;2023-11-18T13:01:00;93477.22;;;6.07;80.74
9738;BME280;4908;47.446;13.900;2023-11-18T13:03:28;93465.50;;;5.96;79.06
9738;BME280;4908;47.446;13.900;2023-11-18T13:05:55;93472.00;;;6.11;70.22
9738;BME280;4908;47.446;13.900;2023-11-18T13:08:23;93473.66;;;6.15;72.70
9738;BME280;4908;47.446;13.900;2023-11-18T13:10:51;93467.19;;;6.28;70.37
9738;BME280;4908;47.446;13.900;2023-11-18T13:13:18;93466.31;;;6.24;82.90
9738;BME280;4908;47.446;13.900;2023-11-18T13:15:48;93464.13;;;6.14;97.49
9738;BME280;4908;47.446;13.900;2023-11-18T13:18:16;93467.47;;;6.11;77.60
9738;BME280;4908;47.446;13.900;2023-11-18T13:20:54;93463.03;;;6.15;79.03
9738;BME280;4908;47.446;13.900;2023-11-18T13:23:25;93463.91;;;6.19;79.48
9738;BME280;4908;47.446;13.900;2023-11-18T13:25:55;93462.34;;;6.18;90.17
9738;BME280;4908;47.446;13.900;2023-11-18T13:28:22;93454.38;;;6.06;96.03